createdAt,value
2019-04-28T00:00:05.396Z,6.50
2019-04-28T00:01:05.354Z,6.60
2019-04-28T00:02:05.326Z,5.70
2019-04-28T00:03:05.298Z,6.10
2019-04-28T00:04:05.291Z,6.10
2019-04-28T00:05:05.265Z,5.80
2019-04-28T00:06:05.222Z,5.90
2019-04-28T00:07:05.219Z,6.30
2019-04-28T00:08:05.185Z,8.00
2019-04-28T00:09:05.149Z,5.60
2019-04-28T00:10:05.124Z,6.70
2019-04-28T00:11:05.096Z,6.20
2019-04-28T00:12:05.076Z,5.70
2019-04-28T00:13:05.044Z,6.20
2019-04-28T00:14:05.021Z,6.50
2019-04-28T00:15:04.996Z,5.00
2019-04-28T00:16:04.970Z,5.80
2019-04-28T00:17:04.958Z,6.40
2019-04-28T00:18:04.916Z,7.10
2019-04-28T00:19:04.888Z,7.10
2019-04-28T00:20:04.878Z,5.80
2019-04-28T00:21:04.838Z,8.90
2019-04-28T00:22:04.824Z,6.00
2019-04-28T00:23:06.959Z,7.30
2019-04-28T00:24:04.769Z,6.00
2019-04-28T00:25:04.738Z,5.20
2019-04-28T00:26:04.713Z,6.00
2019-04-28T00:27:04.688Z,5.40
2019-04-28T00:28:04.662Z,6.00
2019-04-28T00:29:04.711Z,5.50
2019-04-28T00:30:04.691Z,4.80
2019-04-28T00:31:04.667Z,4.50
2019-04-28T00:32:04.620Z,5.00
2019-04-28T00:33:04.617Z,4.80
2019-04-28T00:34:05.407Z,4.50
2019-04-28T00:35:04.555Z,4.20
2019-04-28T00:36:04.536Z,4.30
2019-04-28T00:37:04.433Z,4.20
2019-04-28T00:38:04.409Z,4.50
2019-04-28T00:39:04.386Z,3.90
2019-04-28T00:40:04.360Z,5.40
2019-04-28T00:41:04.378Z,3.60
2019-04-28T00:42:04.359Z,4.20
2019-04-28T00:43:04.285Z,3.10
2019-04-28T00:44:04.256Z,4.90
2019-04-28T00:45:04.243Z,4.30
2019-04-28T00:46:12.551Z,4.60
2019-04-28T00:48:05.313Z,4.30
2019-04-28T00:49:05.067Z,7.00
2019-04-28T00:51:14.129Z,5.60
2019-04-28T00:52:00.691Z,6.10
2019-04-28T00:52:59.370Z,6.20
2019-04-28T00:54:00.824Z,6.80
2019-04-28T00:55:01.114Z,5.00
2019-04-28T00:55:59.289Z,6.10
2019-04-28T00:56:59.297Z,6.00
2019-04-28T00:58:00.851Z,7.60
2019-04-28T00:58:59.227Z,5.30
2019-04-28T00:59:59.204Z,5.80
2019-04-28T01:00:59.189Z,4.90
2019-04-28T01:02:01.125Z,5.70
2019-04-28T01:02:59.133Z,4.70
2019-04-28T01:03:59.121Z,6.10
2019-04-28T01:04:59.064Z,4.90
2019-04-28T01:05:59.065Z,4.90
2019-04-28T01:06:59.040Z,5.40
2019-04-28T01:08:00.995Z,4.40
2019-04-28T01:08:58.986Z,4.30
2019-04-28T01:09:58.961Z,4.90
2019-04-28T01:10:58.948Z,4.50
2019-04-28T01:11:58.916Z,5.40
2019-04-28T01:12:58.893Z,6.30
2019-04-28T01:13:58.859Z,5.20
2019-04-28T01:15:00.228Z,4.80
2019-04-28T01:15:59.415Z,4.90
2019-04-28T01:16:59.875Z,5.20
2019-04-28T01:18:00.571Z,6.80
2019-04-28T01:19:00.105Z,5.20
2019-04-28T01:19:59.792Z,4.10
2019-04-28T01:20:59.656Z,4.80
2019-04-28T01:22:00.362Z,4.50
2019-04-28T01:23:06.266Z,5.40
2019-04-28T01:24:52.526Z,5.20
2019-04-28T01:25:52.475Z,5.20
2019-04-28T01:26:52.454Z,5.10
2019-04-28T01:27:52.431Z,5.00
2019-04-28T01:28:52.398Z,7.30
2019-04-28T01:30:05.163Z,5.50
2019-04-28T01:30:52.346Z,6.10
2019-04-28T01:31:52.323Z,4.40
2019-04-28T01:32:52.295Z,4.80
2019-04-28T01:33:52.295Z,4.70
2019-04-28T01:34:52.244Z,5.10
2019-04-28T01:35:52.235Z,4.10
2019-04-28T01:36:52.230Z,4.50
2019-04-28T01:37:52.172Z,4.00
2019-04-28T01:38:52.141Z,4.30
2019-04-28T01:39:52.118Z,4.50
2019-04-28T01:40:52.103Z,4.70
2019-04-28T01:41:52.087Z,4.50
2019-04-28T01:42:52.042Z,5.40
2019-04-28T01:43:52.354Z,4.30
2019-04-28T01:44:52.021Z,4.70
2019-04-28T01:45:51.967Z,4.00
2019-04-28T01:46:51.945Z,4.70
2019-04-28T01:47:51.918Z,4.40
2019-04-28T01:48:51.891Z,5.00
2019-04-28T01:49:51.863Z,4.40
2019-04-28T01:50:51.846Z,6.20
2019-04-28T01:51:51.812Z,4.70
2019-04-28T01:52:51.791Z,4.60
2019-04-28T01:53:51.776Z,5.30
2019-04-28T01:54:51.742Z,4.70
2019-04-28T01:55:51.715Z,4.90
2019-04-28T01:56:51.689Z,4.30
2019-04-28T01:57:51.663Z,5.10
2019-04-28T01:58:51.761Z,4.80
2019-04-28T01:59:51.610Z,4.40
2019-04-28T02:00:51.587Z,4.20
2019-04-28T02:01:51.557Z,4.00
2019-04-28T02:02:51.541Z,4.20
2019-04-28T02:03:51.564Z,4.60
2019-04-28T02:04:51.488Z,3.60
2019-04-28T02:05:51.456Z,4.30
2019-04-28T02:06:51.446Z,4.80
2019-04-28T02:07:51.420Z,4.20
2019-04-28T02:08:51.386Z,5.10
2019-04-28T02:09:51.361Z,3.70
2019-04-28T02:10:51.335Z,4.20
2019-04-28T02:11:51.308Z,5.10
2019-04-28T02:12:51.283Z,5.20
2019-04-28T02:13:51.254Z,4.00
2019-04-28T02:14:52.151Z,5.20
2019-04-28T02:15:51.206Z,6.00
2019-04-28T02:16:51.176Z,6.10
2019-04-28T02:17:51.683Z,5.70
2019-04-28T02:18:51.122Z,7.70
2019-04-28T02:19:51.540Z,6.20
2019-04-28T02:20:51.129Z,6.70
2019-04-28T02:21:51.050Z,5.30
2019-04-28T02:22:51.027Z,7.20
2019-04-28T02:23:51.447Z,7.40
2019-04-28T02:24:50.972Z,7.50
2019-04-28T02:25:50.952Z,8.30
2019-04-28T02:26:52.751Z,8.70
2019-04-28T02:27:50.896Z,8.80
2019-04-28T02:28:50.875Z,9.60
2019-04-28T02:29:50.847Z,9.70
2019-04-28T02:30:53.861Z,9.30
2019-04-28T02:31:51.151Z,9.10
2019-04-28T02:32:51.834Z,11.70
2019-04-28T02:33:53.763Z,11.40
2019-04-28T02:34:50.948Z,11.70
2019-04-28T02:35:51.158Z,9.80
2019-04-28T02:36:53.984Z,11.50
2019-04-28T02:37:50.710Z,8.10
2019-04-28T02:38:51.333Z,11.10
2019-04-28T02:39:50.769Z,8.70
2019-04-28T02:40:50.668Z,10.10
2019-04-28T02:41:51.108Z,10.80
2019-04-28T02:42:52.181Z,11.20
2019-04-28T02:43:51.094Z,10.30
2019-04-28T02:44:50.629Z,12.60
2019-04-28T02:45:53.307Z,12.10
2019-04-28T02:46:50.837Z,12.50
2019-04-28T02:47:52.286Z,12.30
2019-04-28T02:48:53.796Z,11.40
2019-04-28T02:49:50.506Z,10.80
2019-04-28T02:50:50.993Z,10.80
2019-04-28T02:51:50.624Z,12.70
2019-04-28T02:52:51.947Z,10.30
2019-04-28T02:53:51.226Z,12.40
2019-04-28T02:54:50.894Z,14.30
2019-04-28T02:55:51.394Z,12.90
2019-04-28T02:56:51.064Z,13.30
2019-04-28T02:57:51.619Z,11.40
2019-04-28T02:58:51.046Z,17.50
2019-04-28T02:59:50.775Z,14.30
2019-04-28T03:01:02.763Z,11.10
2019-04-28T03:01:50.963Z,12.20
2019-04-28T03:02:51.398Z,11.40
2019-04-28T03:03:50.774Z,12.30
2019-04-28T03:04:50.778Z,11.50
2019-04-28T03:05:51.193Z,14.40
2019-04-28T03:06:51.795Z,12.50
2019-04-28T03:07:51.492Z,15.00
2019-04-28T03:08:50.578Z,12.70
2019-04-28T03:09:52.021Z,12.30
2019-04-28T03:10:50.872Z,14.00
2019-04-28T03:11:51.166Z,12.40
2019-04-28T03:12:51.630Z,13.30
2019-04-28T03:13:51.108Z,16.30
2019-04-28T03:14:50.550Z,12.40
2019-04-28T03:15:51.554Z,12.70
2019-04-28T03:16:50.962Z,13.40
2019-04-28T03:17:52.588Z,13.10
2019-04-28T03:18:51.449Z,13.60
2019-04-28T03:19:51.607Z,14.10
2019-04-28T03:20:51.566Z,13.60
2019-04-28T03:21:51.027Z,11.50
2019-04-28T03:22:51.099Z,12.90
2019-04-28T03:23:51.731Z,13.50
2019-04-28T03:24:51.050Z,12.50
2019-04-28T03:25:50.605Z,13.10
2019-04-28T03:26:50.843Z,13.40
2019-04-28T03:27:50.945Z,11.90
2019-04-28T03:28:51.361Z,13.90
2019-04-28T03:29:50.420Z,13.50
2019-04-28T03:30:53.254Z,14.90
2019-04-28T03:32:13.767Z,13.20
2019-04-28T03:32:55.461Z,12.90
2019-04-28T03:33:55.203Z,12.80
2019-04-28T03:34:53.951Z,13.60
2019-04-28T03:35:53.340Z,13.60
2019-04-28T03:36:51.721Z,14.10
2019-04-28T03:37:51.292Z,13.60
2019-04-28T03:38:50.393Z,16.20
2019-04-28T03:39:50.393Z,12.90
2019-04-28T03:40:51.223Z,12.00
2019-04-28T03:41:50.233Z,14.80
2019-04-28T03:42:51.354Z,11.00
2019-04-28T03:43:51.258Z,12.70
2019-04-28T03:44:51.217Z,14.10
2019-04-28T03:45:50.339Z,11.90
2019-04-28T03:46:51.227Z,13.70
2019-04-28T03:47:50.903Z,17.30
2019-04-28T03:48:50.872Z,10.80
2019-04-28T03:49:50.491Z,14.10
2019-04-28T03:50:51.221Z,15.40
2019-04-28T03:51:50.638Z,12.30
2019-04-28T03:52:51.112Z,13.80
2019-04-28T03:53:50.702Z,12.30
2019-04-28T03:54:50.820Z,14.60
2019-04-28T03:55:50.625Z,12.30
2019-04-28T03:56:50.192Z,13.80
2019-04-28T03:57:50.903Z,13.20
2019-04-28T03:58:50.459Z,15.00
2019-04-28T03:59:50.906Z,15.60
2019-04-28T04:00:50.603Z,16.00
2019-04-28T04:01:56.764Z,14.90
2019-04-28T04:02:50.738Z,14.50
2019-04-28T04:03:51.329Z,14.80
2019-04-28T04:04:48.431Z,16.00
2019-04-28T04:05:50.782Z,15.20
2019-04-28T04:06:50.757Z,15.70
2019-04-28T04:07:50.494Z,16.10
2019-04-28T04:08:50.545Z,13.70
2019-04-28T04:09:51.171Z,13.10
2019-04-28T04:10:50.304Z,13.70
2019-04-28T04:11:50.828Z,14.90
2019-04-28T04:12:50.662Z,12.90
2019-04-28T04:13:48.216Z,13.70
2019-04-28T04:14:50.584Z,15.60
2019-04-28T04:15:52.686Z,13.90
2019-04-28T04:16:50.187Z,14.60
2019-04-28T04:17:50.833Z,14.80
2019-04-28T04:18:53.005Z,16.70
2019-04-28T04:19:50.254Z,13.40
2019-04-28T04:20:50.981Z,13.10
2019-04-28T04:21:50.382Z,12.50
2019-04-28T04:22:47.974Z,18.10
2019-04-28T04:23:50.773Z,14.80
2019-04-28T04:24:50.001Z,14.40
2019-04-28T04:25:47.896Z,14.50
2019-04-28T04:26:50.456Z,14.80
2019-04-28T04:27:50.086Z,12.30
2019-04-28T04:28:47.820Z,15.20
2019-04-28T04:29:47.798Z,13.80
2019-04-28T04:30:50.500Z,13.50
2019-04-28T04:31:47.747Z,14.80
2019-04-28T04:32:47.737Z,13.80
2019-04-28T04:33:50.313Z,13.40
2019-04-28T04:34:50.385Z,14.30
2019-04-28T04:35:47.644Z,15.40
2019-04-28T04:36:47.626Z,13.50
2019-04-28T04:37:50.276Z,15.30
2019-04-28T04:38:47.575Z,12.40
2019-04-28T04:39:47.547Z,13.50
2019-04-28T04:40:47.518Z,18.80
2019-04-28T04:41:47.498Z,12.90
2019-04-28T04:42:50.145Z,14.90
2019-04-28T04:43:47.443Z,15.30
2019-04-28T04:44:47.411Z,14.80
2019-04-28T04:45:50.086Z,14.60
2019-04-28T04:46:47.363Z,13.60
2019-04-28T04:47:47.339Z,17.10
2019-04-28T04:48:47.311Z,13.70
2019-04-28T04:49:47.282Z,11.70
2019-04-28T04:50:47.268Z,15.30
2019-04-28T04:51:47.242Z,14.20
2019-04-28T04:52:47.213Z,15.00
2019-04-28T04:53:47.192Z,15.10
2019-04-28T04:54:47.167Z,13.60
2019-04-28T04:55:47.141Z,13.00
2019-04-28T04:56:47.105Z,14.50
2019-04-28T04:57:47.089Z,15.80
2019-04-28T04:58:47.061Z,15.10
2019-04-28T04:59:47.043Z,16.00
2019-04-28T05:00:47.012Z,12.80
2019-04-28T05:01:46.989Z,14.40
2019-04-28T05:02:51.983Z,12.50
2019-04-28T05:03:46.946Z,14.50
2019-04-28T05:04:46.915Z,15.50
2019-04-28T05:05:46.882Z,13.00
2019-04-28T05:06:46.861Z,13.60
2019-04-28T05:07:46.833Z,15.00
2019-04-28T05:08:46.813Z,11.30
2019-04-28T05:09:46.783Z,15.30
2019-04-28T05:10:46.765Z,13.30
2019-04-28T05:11:46.749Z,12.60
2019-04-28T05:12:46.714Z,14.10
2019-04-28T05:13:46.689Z,12.30
2019-04-28T05:14:46.665Z,14.00
2019-04-28T05:15:46.638Z,10.60
2019-04-28T05:16:46.613Z,12.20
2019-04-28T05:17:46.593Z,12.00
2019-04-28T05:18:46.560Z,13.10
2019-04-28T05:19:46.542Z,13.60
2019-04-28T05:20:46.515Z,12.10
2019-04-28T05:21:46.499Z,13.50
2019-04-28T05:22:46.475Z,12.20
2019-04-28T05:23:46.446Z,12.40
2019-04-28T05:24:50.528Z,12.60
2019-04-28T05:25:46.400Z,11.70
2019-04-28T05:26:47.699Z,13.20
2019-04-28T05:27:46.346Z,11.10
2019-04-28T05:28:51.574Z,12.40
2019-04-28T05:29:46.295Z,10.90
2019-04-28T05:30:46.289Z,12.20
2019-04-28T05:31:46.249Z,10.30
2019-04-28T05:32:53.608Z,11.40
2019-04-28T05:33:46.220Z,10.40
2019-04-28T05:34:47.159Z,11.20
2019-04-28T05:35:46.152Z,10.90
2019-04-28T05:36:46.135Z,9.90
2019-04-28T05:37:46.129Z,12.10
2019-04-28T05:38:46.089Z,11.40
2019-04-28T05:39:46.063Z,9.10
2019-04-28T05:40:46.033Z,10.30
2019-04-28T05:41:46.011Z,10.90
2019-04-28T05:42:45.992Z,10.90
2019-04-28T05:43:45.966Z,12.00
2019-04-28T05:44:45.943Z,10.50
2019-04-28T05:45:45.915Z,10.10
2019-04-28T05:46:45.895Z,11.40
2019-04-28T05:47:45.870Z,13.00
2019-04-28T05:48:45.865Z,10.40
2019-04-28T05:49:45.850Z,10.60
2019-04-28T05:50:45.800Z,9.40
2019-04-28T05:51:45.781Z,11.50
2019-04-28T05:52:45.766Z,10.40
2019-04-28T05:53:45.728Z,10.70
2019-04-28T05:54:45.741Z,7.50
2019-04-28T05:55:45.686Z,8.70
2019-04-28T05:56:45.661Z,8.50
2019-04-28T05:57:45.638Z,10.70
2019-04-28T05:58:45.611Z,9.20
2019-04-28T05:59:45.603Z,10.40
2019-04-28T06:00:45.575Z,8.80
2019-04-28T06:01:45.550Z,8.40
2019-04-28T06:02:55.527Z,10.50
2019-04-28T06:03:45.508Z,9.20
2019-04-28T06:04:45.490Z,10.40
2019-04-28T06:05:45.466Z,8.80
2019-04-28T06:06:45.443Z,10.30
2019-04-28T06:07:45.420Z,7.70
2019-04-28T06:08:45.402Z,10.40
2019-04-28T06:09:45.384Z,11.20
2019-04-28T06:10:45.357Z,9.90
2019-04-28T06:11:45.338Z,10.00
2019-04-28T06:12:45.332Z,10.50
2019-04-28T06:13:45.293Z,8.60
2019-04-28T06:14:45.285Z,8.60
2019-04-28T06:15:45.253Z,10.50
2019-04-28T06:16:45.231Z,11.90
2019-04-28T06:17:45.205Z,8.80
2019-04-28T06:18:45.187Z,9.90
2019-04-28T06:19:45.168Z,8.80
2019-04-28T06:20:45.151Z,8.30
2019-04-28T06:21:45.125Z,9.30
2019-04-28T06:22:45.105Z,10.10
2019-04-28T06:23:45.105Z,9.40
2019-04-28T06:24:45.069Z,8.30
2019-04-28T06:25:45.041Z,8.20
2019-04-28T06:26:45.018Z,8.90
2019-04-28T06:27:45.002Z,9.20
2019-04-28T06:28:44.982Z,7.70
2019-04-28T06:29:44.958Z,9.60
2019-04-28T06:30:44.941Z,10.20
2019-04-28T06:31:44.918Z,9.40
2019-04-28T06:32:44.901Z,8.60
2019-04-28T06:33:45.479Z,9.00
2019-04-28T06:34:44.875Z,7.50
2019-04-28T06:35:44.837Z,9.50
2019-04-28T06:36:44.815Z,9.70
2019-04-28T06:37:44.791Z,8.50
2019-04-28T06:38:44.791Z,10.20
2019-04-28T06:39:47.239Z,9.40
2019-04-28T06:40:44.724Z,9.10
2019-04-28T06:41:44.708Z,8.90
2019-04-28T06:42:44.687Z,12.60
2019-04-28T06:43:44.664Z,8.30
2019-04-28T06:44:44.652Z,8.50
2019-04-28T06:45:44.622Z,10.50
2019-04-28T06:46:44.595Z,9.10
2019-04-28T06:47:44.581Z,8.10
2019-04-28T06:48:44.558Z,8.80
2019-04-28T06:49:44.555Z,9.20
2019-04-28T06:50:44.513Z,10.90
2019-04-28T06:51:44.491Z,11.10
2019-04-28T06:52:44.470Z,9.70
2019-04-28T06:53:44.448Z,10.70
2019-04-28T06:54:44.426Z,11.30
2019-04-28T06:55:44.407Z,11.10
2019-04-28T06:56:44.379Z,9.70
2019-04-28T06:57:44.358Z,10.30
2019-04-28T06:58:44.333Z,9.50
2019-04-28T06:59:44.314Z,9.60
2019-04-28T07:00:44.982Z,9.70
2019-04-28T07:01:44.267Z,13.40
2019-04-28T07:02:44.237Z,9.10
2019-04-28T07:03:44.228Z,9.30
2019-04-28T07:04:44.201Z,9.30
2019-04-28T07:05:44.180Z,10.70
2019-04-28T07:06:44.154Z,12.90
2019-04-28T07:07:44.135Z,10.20
2019-04-28T07:08:44.125Z,9.90
2019-04-28T07:09:44.097Z,11.70
2019-04-28T07:10:44.066Z,9.80
2019-04-28T07:11:44.039Z,8.90
2019-04-28T07:12:44.023Z,8.00
2019-04-28T07:13:43.995Z,8.70
2019-04-28T07:14:43.975Z,11.00
2019-04-28T07:15:43.952Z,9.70
2019-04-28T07:16:43.925Z,8.90
2019-04-28T07:17:43.901Z,9.90
2019-04-28T07:18:43.882Z,11.30
2019-04-28T07:19:43.860Z,9.50
2019-04-28T07:20:43.830Z,9.40
2019-04-28T07:21:43.810Z,11.10
2019-04-28T07:22:43.787Z,9.70
2019-04-28T07:23:43.767Z,9.90
2019-04-28T07:24:44.916Z,10.20
2019-04-28T07:25:43.719Z,9.90
2019-04-28T07:26:43.693Z,10.60
2019-04-28T07:27:43.693Z,11.00
2019-04-28T07:28:43.649Z,10.00
2019-04-28T07:29:43.629Z,9.90
2019-04-28T07:30:43.607Z,10.50
2019-04-28T07:31:43.594Z,9.10
2019-04-28T07:32:43.564Z,9.90
2019-04-28T07:33:43.537Z,10.20
2019-04-28T07:34:43.509Z,8.00
2019-04-28T07:35:43.492Z,9.00
2019-04-28T07:36:43.469Z,7.60
2019-04-28T07:37:43.448Z,8.90
2019-04-28T07:38:43.431Z,10.60
2019-04-28T07:39:43.404Z,11.70
2019-04-28T07:40:43.377Z,9.90
2019-04-28T07:41:43.354Z,8.60
2019-04-28T07:42:43.328Z,10.10
2019-04-28T07:43:43.329Z,9.50
2019-04-28T07:44:43.308Z,12.30
2019-04-28T07:45:43.264Z,11.80
2019-04-28T07:46:43.254Z,10.40
2019-04-28T07:47:43.219Z,8.70
2019-04-28T07:48:43.200Z,9.40
2019-04-28T07:49:43.196Z,8.80
2019-04-28T07:50:43.168Z,11.10
2019-04-28T07:51:43.124Z,8.60
2019-04-28T07:52:43.113Z,9.30
2019-04-28T07:53:43.095Z,8.80
2019-04-28T07:54:43.064Z,7.20
2019-04-28T07:55:43.042Z,8.40
2019-04-28T07:56:43.042Z,10.20
2019-04-28T07:57:43.000Z,12.70
2019-04-28T07:58:42.982Z,11.80
2019-04-28T07:59:42.962Z,10.20
2019-04-28T08:00:42.935Z,10.80
2019-04-28T08:01:42.922Z,9.20
2019-04-28T08:02:42.914Z,12.90
2019-04-28T08:03:49.234Z,12.80
2019-04-28T08:04:42.869Z,12.70
2019-04-28T08:05:42.832Z,10.50
2019-04-28T08:06:42.826Z,11.20
2019-04-28T08:07:42.811Z,11.30
2019-04-28T08:08:42.777Z,15.70
2019-04-28T08:09:42.762Z,11.80
2019-04-28T08:10:42.735Z,8.90
2019-04-28T08:11:42.715Z,8.70
2019-04-28T08:12:42.698Z,11.80
2019-04-28T08:13:42.678Z,10.10
2019-04-28T08:14:42.661Z,8.70
2019-04-28T08:15:42.653Z,8.80
2019-04-28T08:16:42.621Z,9.90
2019-04-28T08:17:42.605Z,7.50
2019-04-28T08:18:42.586Z,9.90
2019-04-28T08:19:42.565Z,9.50
2019-04-28T08:20:42.549Z,10.20
2019-04-28T08:21:42.533Z,10.90
2019-04-28T08:22:42.507Z,12.10
2019-04-28T08:23:47.306Z,11.10
2019-04-28T08:24:42.474Z,11.50
2019-04-28T08:25:42.482Z,11.00
2019-04-28T08:26:42.449Z,11.90
2019-04-28T08:27:42.426Z,10.70
2019-04-28T08:28:42.421Z,10.20
2019-04-28T08:29:42.392Z,10.10
2019-04-28T08:30:42.374Z,9.90
2019-04-28T08:31:42.399Z,10.30
2019-04-28T08:32:42.334Z,11.00
2019-04-28T08:33:42.313Z,13.00
2019-04-28T08:34:42.298Z,11.00
2019-04-28T08:35:42.276Z,13.20
2019-04-28T08:36:42.253Z,11.50
2019-04-28T08:37:42.235Z,13.70
2019-04-28T08:38:42.225Z,10.80
2019-04-28T08:39:42.198Z,11.90
2019-04-28T08:40:42.175Z,11.30
2019-04-28T08:41:42.166Z,14.60
2019-04-28T08:42:42.146Z,10.70
2019-04-28T08:43:42.126Z,10.70
2019-04-28T08:44:42.121Z,9.70
2019-04-28T08:45:42.094Z,10.10
2019-04-28T08:46:42.083Z,9.50
2019-04-28T08:47:42.054Z,10.60
2019-04-28T08:48:42.047Z,8.50
2019-04-28T08:49:42.013Z,9.40
2019-04-28T08:50:41.991Z,13.20
2019-04-28T08:51:41.974Z,12.80
2019-04-28T08:52:41.955Z,10.60
2019-04-28T08:53:41.938Z,10.80
2019-04-28T08:54:41.920Z,9.40
2019-04-28T08:55:41.903Z,8.60
2019-04-28T08:56:41.880Z,10.60
2019-04-28T08:57:41.865Z,8.80
2019-04-28T08:58:41.859Z,9.30
2019-04-28T08:59:41.832Z,8.00
2019-04-28T09:00:41.813Z,9.30
2019-04-28T09:01:41.794Z,8.40
2019-04-28T09:02:41.776Z,8.30
2019-04-28T09:03:41.766Z,10.00
2019-04-28T09:04:41.752Z,10.00
2019-04-28T09:05:41.730Z,9.70
2019-04-28T09:06:41.717Z,9.30
2019-04-28T09:07:41.711Z,11.30
2019-04-28T09:08:41.684Z,10.30
2019-04-28T09:09:41.666Z,6.90
2019-04-28T09:10:41.651Z,11.00
2019-04-28T09:11:41.713Z,10.80
2019-04-28T09:12:41.616Z,10.10
2019-04-28T09:13:43.791Z,11.20
2019-04-28T09:14:41.584Z,11.50
2019-04-28T09:15:41.558Z,10.20
2019-04-28T09:16:41.558Z,9.60
2019-04-28T09:17:41.529Z,9.10
2019-04-28T09:18:41.511Z,9.60
2019-04-28T09:19:42.544Z,10.50
2019-04-28T09:20:41.471Z,8.80
2019-04-28T09:21:41.456Z,9.80
2019-04-28T09:22:41.438Z,8.90
2019-04-28T09:23:41.421Z,8.40
2019-04-28T09:24:41.415Z,8.90
2019-04-28T09:25:41.387Z,7.20
2019-04-28T09:26:41.369Z,7.40
2019-04-28T09:27:41.353Z,7.30
2019-04-28T09:28:41.332Z,8.30
2019-04-28T09:29:41.328Z,11.70
2019-04-28T09:30:41.307Z,9.70
2019-04-28T09:31:41.287Z,8.20
2019-04-28T09:32:41.270Z,8.90
2019-04-28T09:33:41.249Z,9.40
2019-04-28T09:34:41.227Z,9.90
2019-04-28T09:35:41.214Z,8.80
2019-04-28T09:36:41.215Z,8.30
2019-04-28T09:37:41.180Z,7.30
2019-04-28T09:38:41.179Z,9.40
2019-04-28T09:39:41.149Z,9.10
2019-04-28T09:40:41.129Z,9.30
2019-04-28T09:41:41.113Z,9.70
2019-04-28T09:42:41.092Z,9.50
2019-04-28T09:43:41.076Z,8.70
2019-04-28T09:44:41.057Z,9.50
2019-04-28T09:45:41.048Z,10.90
2019-04-28T09:46:41.042Z,9.10
2019-04-28T09:47:41.022Z,8.30
2019-04-28T09:48:40.987Z,8.40
2019-04-28T09:49:40.968Z,9.80
2019-04-28T09:50:40.943Z,8.70
2019-04-28T09:51:40.933Z,7.90
2019-04-28T09:52:40.915Z,9.00
2019-04-28T09:53:40.899Z,9.60
2019-04-28T09:54:40.879Z,9.20
2019-04-28T09:55:40.859Z,10.00
2019-04-28T09:56:40.838Z,9.70
2019-04-28T09:57:40.824Z,6.70
2019-04-28T09:58:40.811Z,7.30
2019-04-28T09:59:40.791Z,7.20
2019-04-28T10:00:40.772Z,8.60
2019-04-28T10:01:40.755Z,9.60
2019-04-28T10:02:40.739Z,7.90
2019-04-28T10:03:40.719Z,8.40
2019-04-28T10:04:41.913Z,8.60
2019-04-28T10:05:40.687Z,7.40
2019-04-28T10:06:40.673Z,6.40
2019-04-28T10:07:40.659Z,8.30
2019-04-28T10:08:40.639Z,8.90
2019-04-28T10:09:40.625Z,8.60
2019-04-28T10:10:40.611Z,9.10
2019-04-28T10:11:40.590Z,8.60
2019-04-28T10:12:40.582Z,6.80
2019-04-28T10:13:40.577Z,6.10
2019-04-28T10:14:40.547Z,8.60
2019-04-28T10:15:40.534Z,7.90
2019-04-28T10:18:05.161Z,7.80
2019-04-28T10:19:05.090Z,7.70
2019-04-28T10:21:06.511Z,6.50
2019-04-28T10:22:06.552Z,6.70
2019-04-28T10:23:06.503Z,9.70
2019-04-28T10:24:06.474Z,7.30
2019-04-28T10:25:06.486Z,9.40
2019-04-28T10:26:06.464Z,6.70
2019-04-28T10:27:06.482Z,7.60
2019-04-28T10:28:06.463Z,6.90
2019-04-28T10:29:06.411Z,6.20
2019-04-28T10:30:06.405Z,7.70
2019-04-28T10:31:06.412Z,8.50
2019-04-28T10:32:06.387Z,9.00
2019-04-28T10:33:06.387Z,9.40
2019-04-28T10:34:06.378Z,9.10
2019-04-28T10:35:06.345Z,7.50
2019-04-28T10:36:06.341Z,5.90
2019-04-28T10:37:06.321Z,8.80
2019-04-28T10:38:06.325Z,7.50
2019-04-28T10:39:06.300Z,6.60
2019-04-28T10:40:06.304Z,6.10
2019-04-28T10:41:06.282Z,6.00
2019-04-28T10:42:06.282Z,6.80
2019-04-28T10:43:06.259Z,5.90
2019-04-28T10:44:08.512Z,7.90
2019-04-28T10:45:06.243Z,5.40
2019-04-28T10:46:06.228Z,5.20
2019-04-28T10:47:06.219Z,7.50
2019-04-28T10:48:06.226Z,6.50
2019-04-28T10:49:06.232Z,5.90
2019-04-28T10:50:06.203Z,7.90
2019-04-28T10:51:06.172Z,5.70
2019-04-28T10:52:06.294Z,5.10
2019-04-28T10:53:06.248Z,7.20
2019-04-28T10:54:06.161Z,5.60
2019-04-28T10:55:06.176Z,6.30
2019-04-28T10:56:06.121Z,4.70
2019-04-28T10:57:06.118Z,6.00
2019-04-28T10:58:06.111Z,6.10
2019-04-28T10:59:06.123Z,5.20
2019-04-28T11:00:06.063Z,7.20
2019-04-28T11:01:06.092Z,5.70
2019-04-28T11:02:06.059Z,5.20
2019-04-28T11:03:06.024Z,7.80
2019-04-28T11:04:06.052Z,7.00
2019-04-28T11:05:08.640Z,5.40
2019-04-28T11:06:06.006Z,6.00
2019-04-28T11:07:05.974Z,6.50
2019-04-28T11:08:05.970Z,6.00
2019-04-28T11:09:05.972Z,5.70
2019-04-28T11:10:05.960Z,5.40
2019-04-28T11:11:05.994Z,6.10
2019-04-28T11:12:05.968Z,6.40
2019-04-28T11:13:05.916Z,7.50
2019-04-28T11:14:05.941Z,6.60
2019-04-28T11:15:05.905Z,6.10
2019-04-28T11:16:05.901Z,7.90
2019-04-28T11:17:05.902Z,6.80
2019-04-28T11:18:05.941Z,5.30
2019-04-28T11:19:05.876Z,4.70
2019-04-28T11:20:05.886Z,15.10
2019-04-28T11:21:05.826Z,5.60
2019-04-28T11:22:05.829Z,5.30
2019-04-28T11:23:05.806Z,6.80
2019-04-28T11:24:05.828Z,6.70
2019-04-28T11:25:05.828Z,6.30
2019-04-28T11:26:05.753Z,7.90
2019-04-28T11:27:05.747Z,8.70
2019-04-28T11:28:05.761Z,8.70
2019-04-28T11:29:05.732Z,6.80
2019-04-28T11:30:05.730Z,6.20
2019-04-28T11:31:05.693Z,6.90
2019-04-28T11:32:05.670Z,6.50
2019-04-28T11:33:05.660Z,5.30
2019-04-28T11:34:05.638Z,6.90
2019-04-28T11:35:05.640Z,6.70
2019-04-28T11:36:05.610Z,6.20
2019-04-28T11:37:05.622Z,5.70
2019-04-28T11:38:05.595Z,6.30
2019-04-28T11:39:05.598Z,5.20
2019-04-28T11:40:05.543Z,6.40
2019-04-28T11:41:05.563Z,5.90
2019-04-28T11:42:05.555Z,7.50
2019-04-28T11:43:05.525Z,7.10
2019-04-28T11:44:05.511Z,5.80
2019-04-28T11:45:05.501Z,5.80
2019-04-28T11:46:05.466Z,5.40
2019-04-28T11:47:05.438Z,6.30
2019-04-28T11:48:05.439Z,6.10
2019-04-28T11:49:05.419Z,7.50
2019-04-28T11:50:05.432Z,6.40
2019-04-28T11:51:05.390Z,5.60
2019-04-28T11:52:05.403Z,6.10
2019-04-28T11:53:05.348Z,5.60
2019-04-28T11:54:05.320Z,6.60
2019-04-28T11:55:05.361Z,5.40
2019-04-28T11:56:05.324Z,5.80
2019-04-28T11:57:05.263Z,4.70
2019-04-28T11:58:05.334Z,6.30
2019-04-28T11:59:05.252Z,6.00
2019-04-28T12:00:05.261Z,5.70
2019-04-28T12:01:05.220Z,6.20
2019-04-28T12:02:05.192Z,7.00
2019-04-28T12:03:05.179Z,7.90
2019-04-28T12:04:05.181Z,5.60
2019-04-28T12:05:05.143Z,5.70
2019-04-28T12:06:05.127Z,6.90
2019-04-28T12:07:05.137Z,5.40
2019-04-28T12:08:05.126Z,6.90
2019-04-28T12:09:05.104Z,6.30
2019-04-28T12:10:06.143Z,6.00
2019-04-28T12:11:05.085Z,6.00
2019-04-28T12:12:05.053Z,4.50
2019-04-28T12:13:05.065Z,4.20
2019-04-28T12:14:05.030Z,5.90
2019-04-28T12:15:05.050Z,5.40
2019-04-28T12:16:04.988Z,5.20
2019-04-28T12:17:04.996Z,5.30
2019-04-28T12:18:05.012Z,6.80
2019-04-28T12:19:04.940Z,5.30
2019-04-28T12:20:04.938Z,4.80
2019-04-28T12:21:04.910Z,4.40
2019-04-28T12:22:04.925Z,4.50
2019-04-28T12:23:04.932Z,5.20
2019-04-28T12:24:04.877Z,5.70
2019-04-28T12:25:04.910Z,4.90
2019-04-28T12:26:04.844Z,6.80
2019-04-28T12:27:04.880Z,5.80
2019-04-28T12:28:04.842Z,5.90
2019-04-28T12:29:04.860Z,6.40
2019-04-28T12:30:04.829Z,5.60
2019-04-28T12:31:04.774Z,5.50
2019-04-28T12:32:04.781Z,4.30
2019-04-28T12:33:04.762Z,6.80
2019-04-28T12:34:04.755Z,5.40
2019-04-28T12:35:04.726Z,3.80
2019-04-28T12:36:04.724Z,5.10
2019-04-28T12:37:04.701Z,5.90
2019-04-28T12:38:04.718Z,6.90
2019-04-28T12:39:04.723Z,5.40
2019-04-28T12:40:04.686Z,6.70
2019-04-28T12:41:04.659Z,6.90
2019-04-28T12:42:04.639Z,6.10
2019-04-28T12:43:04.639Z,5.40
2019-04-28T12:44:04.688Z,5.90
2019-04-28T12:45:04.649Z,4.70
2019-04-28T12:46:04.624Z,6.00
2019-04-28T12:47:04.605Z,4.50
2019-04-28T12:48:04.602Z,5.80
2019-04-28T12:49:04.579Z,3.70
2019-04-28T12:50:04.579Z,5.40
2019-04-28T12:51:04.572Z,3.80
2019-04-28T12:52:04.563Z,5.70
2019-04-28T12:53:04.565Z,5.00
2019-04-28T12:54:04.525Z,5.50
2019-04-28T12:55:04.519Z,5.70
2019-04-28T12:56:04.518Z,4.50
2019-04-28T12:57:04.500Z,6.10
2019-04-28T12:58:04.498Z,5.00
2019-04-28T12:59:04.493Z,5.40
2019-04-28T13:00:04.456Z,6.40
2019-04-28T13:01:04.453Z,5.20
2019-04-28T13:02:04.433Z,4.30
2019-04-28T13:03:04.441Z,4.90
2019-04-28T13:04:04.439Z,4.10
2019-04-28T13:05:04.411Z,4.20
2019-04-28T13:06:05.965Z,4.80
2019-04-28T13:07:04.388Z,4.40
2019-04-28T13:08:04.428Z,4.60
2019-04-28T13:09:04.403Z,4.20
2019-04-28T13:10:04.370Z,5.90
2019-04-28T13:11:04.387Z,4.00
2019-04-28T13:12:04.358Z,3.30
2019-04-28T13:13:04.331Z,4.20